sensor_id;sensor_type;location;lat;lon;timestamp;pressure;altitude;pressure_sealevel;temperature;humidity
12178;BME280;6152;48.728;9.256;2023-03-03T00:00:53;97267.91;;;1.76;100.00
12178;BME280;6152;48.728;9.256;2023-03-03T00:03:21;97269.72;;;1.71;100.00
12178;BME280;6152;48.728;9.256;2023-03-03T00:05:48;97269.00;;;1.64;100.00
12178;BME280;6152;48.728;9.256;2023-03-03T00:08:15;97269.94;;;1.60;100.00
12178;BME280;6152;48.728;9.256;2023-03-03T00:10:42;97268.31;;;1.58;100.00
12178;BME280;6152;48.728;9.256;2023-03-03T00:13:21;97263.25;;;1.55;100.00
12178;BME280;6152;48.728;9.256;2023-03-03T00:15:48;97269.34;;;1.49;100.00
12178;BME280;6152;48.728;9.256;2023-03-03T00:18:32;97271.25;;;1.41;100.00
12178;BME280;6152;48.728;9.256;2023-03-03T00:21:01;97274.75;;;1.37;100.00
12178;BME280;6152;48.728;9.256;2023-03-03T00:23:39;97270.59;;;1.31;100.00
12178;BME280;6152;48.728;9.256;2023-03-03T00:26:29;97272.34;;;1.29;100.00
12178;BME280;6152;48.728;9.256;2023-03-03T00:28:56;97269.94;;;1.23;100.00
12178;BME280;6152;48.728;9.256;2023-03-03T00:31:32;97276.06;;;1.16;100.00
12178;BME280;6152;48.728;9.256;2023-03-03T00:36:42;97265.09;;;1.10;100.00
12178;BME280;6152;48.728;9.256;2023-03-03T00:41:53;97262.75;;;0.99;100.00
12178;BME280;6152;48.728;9.256;2023-03-03T00:44:36;97272.28;;;0.92;100.00
12178;BME280;6152;48.728;9.256;2023-03-03T00:47:37;97273.25;;;0.87;100.00
12178;BME280;6152;48.728;9.256;2023-03-03T00:52:40;97259.81;;;0.76;100.00
12178;BME280;6152;48.728;9.256;2023-03-03T00:55:10;97267.59;;;0.70;100.00
12178;BME280;6152;48.728;9.256;2023-03-03T00:57:37;97268.53;;;0.66;100.00
12178;BME280;6152;48.728;9.256;2023-03-03T01:00:04;97266.06;;;0.61;100.00
12178;BME280;6152;48.728;9.256;2023-03-03T01:02:30;97272.13;;;0.56;100.00
12178;BME280;6152;48.728;9.256;2023-03-03T01:04:56;97274.81;;;0.51;100.00
12178;BME280;6152;48.728;9.256;2023-03-03T01:07:23;97269.75;;;0.48;100.00
12178;BME280;6152;48.728;9.256;2023-03-03T01:09:49;97272.38;;;0.43;100.00
12178;BME280;6152;48.728;9.256;2023-03-03T01:12:15;97263.88;;;0.41;100.00
12178;BME280;6152;48.728;9.256;2023-03-03T01:14:42;97266.53;;;0.37;100.00
12178;BME280;6152;48.728;9.256;2023-03-03T01:17:10;97266.59;;;0.32;100.00
12178;BME280;6152;48.728;9.256;2023-03-03T01:19:36;97259.00;;;0.29;100.00
12178;BME280;6152;48.728;9.256;2023-03-03T01:22:02;97267.59;;;0.25;100.00
12178;BME280;6152;48.728;9.256;2023-03-03T01:24:28;97265.09;;;0.22;100.00
12178;BME280;6152;48.728;9.256;2023-03-03T01:26:54;97269.41;;;0.20;100.00
12178;BME280;6152;48.728;9.256;2023-03-03T01:29:20;97266.91;;;0.17;100.00
12178;BME280;6152;48.728;9.256;2023-03-03T01:31:46;97257.56;;;0.13;100.00
12178;BME280;6152;48.728;9.256;2023-03-03T01:34:12;97269.53;;;0.11;100.00
12178;BME280;6152;48.728;9.256;2023-03-03T01:36:38;97263.63;;;0.09;100.00
12178;BME280;6152;48.728;9.256;2023-03-03T01:39:05;97257.72;;;0.04;100.00
12178;BME280;6152;48.728;9.256;2023-03-03T01:41:31;97262.88;;;0.01;100.00
12178;BME280;6152;48.728;9.256;2023-03-03T01:44:00;97267.19;;;-0.01;100.00
12178;BME280;6152;48.728;9.256;2023-03-03T01:46:39;97269.81;;;-0.04;100.00
12178;BME280;6152;48.728;9.256;2023-03-03T01:49:15;97266.47;;;-0.08;100.00
12178;BME280;6152;48.728;9.256;2023-03-03T01:51:48;97268.22;;;-0.11;100.00
12178;BME280;6152;48.728;9.256;2023-03-03T01:54:25;97265.69;;;-0.13;100.00
12178;BME280;6152;48.728;9.256;2023-03-03T01:56:58;97259.72;;;-0.13;100.00
12178;BME280;6152;48.728;9.256;2023-03-03T01:59:30;97263.16;;;-0.14;100.00
12178;BME280;6152;48.728;9.256;2023-03-03T02:01:58;97259.81;;;-0.19;100.00
12178;BME280;6152;48.728;9.256;2023-03-03T02:04:26;97259.00;;;-0.21;100.00
12178;BME280;6152;48.728;9.256;2023-03-03T02:06:59;97260.72;;;-0.22;100.00
12178;BME280;6152;48.728;9.256;2023-03-03T02:09:52;97253.06;;;-0.23;100.00
12178;BME280;6152;48.728;9.256;2023-03-03T02:12:22;97250.56;;;-0.26;100.00
12178;BME280;6152;48.728;9.256;2023-03-03T02:14:50;97246.31;;;-0.27;100.00
12178;BME280;6152;48.728;9.256;2023-03-03T02:17:16;97239.53;;;-0.28;100.00
12178;BME280;6152;48.728;9.256;2023-03-03T02:20:02;97231.88;;;-0.30;100.00
12178;BME280;6152;48.728;9.256;2023-03-03T02:22:50;97229.34;;;-0.31;100.00
12178;BME280;6152;48.728;9.256;2023-03-03T02:25:38;97233.63;;;-0.33;100.00
12178;BME280;6152;48.728;9.256;2023-03-03T02:28:07;97237.94;;;-0.35;100.00
12178;BME280;6152;48.728;9.256;2023-03-03T02:30:37;97230.28;;;-0.37;100.00
12178;BME280;6152;48.728;9.256;2023-03-03T02:33:04;97231.13;;;-0.36;100.00
12178;BME280;6152;48.728;9.256;2023-03-03T02:35:33;97232.03;;;-0.40;100.00
12178;BME280;6152;48.728;9.256;2023-03-03T02:43:33;97240.59;;;-0.41;100.00
12178;BME280;6152;48.728;9.256;2023-03-03T02:46:01;97244.75;;;-0.37;100.00
12178;BME280;6152;48.728;9.256;2023-03-03T02:48:27;97239.56;;;-0.31;100.00
12178;BME280;6152;48.728;9.256;2023-03-03T02:50:53;97237.72;;;-0.23;100.00
12178;BME280;6152;48.728;9.256;2023-03-03T02:53:20;97241.00;;;-0.15;100.00
12178;BME280;6152;48.728;9.256;2023-03-03T02:55:46;97242.53;;;-0.05;100.00
12178;BME280;6152;48.728;9.256;2023-03-03T02:58:12;97249.19;;;0.05;100.00
12178;BME280;6152;48.728;9.256;2023-03-03T03:00:38;97249.00;;;0.17;100.00
12178;BME280;6152;48.728;9.256;2023-03-03T03:03:04;97235.16;;;0.27;100.00
12178;BME280;6152;48.728;9.256;2023-03-03T03:05:30;97243.44;;;0.38;100.00
12178;BME280;6152;48.728;9.256;2023-03-03T03:07:56;97243.31;;;0.47;100.00
12178;BME280;6152;48.728;9.256;2023-03-03T03:10:22;97244.88;;;0.55;100.00
12178;BME280;6152;48.728;9.256;2023-03-03T03:12:48;97239.56;;;0.64;100.00
12178;BME280;6152;48.728;9.256;2023-03-03T03:15:14;97247.94;;;0.72;100.00
12178;BME280;6152;48.728;9.256;2023-03-03T03:17:41;97240.13;;;0.79;100.00
12178;BME280;6152;48.728;9.256;2023-03-03T03:20:07;97239.06;;;0.88;100.00
12178;BME280;6152;48.728;9.256;2023-03-03T03:22:33;97240.56;;;0.98;100.00
12178;BME280;6152;48.728;9.256;2023-03-03T03:25:00;97237.81;;;1.07;100.00
12178;BME280;6152;48.728;9.256;2023-03-03T03:27:26;97241.13;;;1.12;100.00
12178;BME280;6152;48.728;9.256;2023-03-03T03:29:52;97240.19;;;1.16;100.00
12178;BME280;6152;48.728;9.256;2023-03-03T03:32:18;97224.06;;;1.11;100.00
12178;BME280;6152;48.728;9.256;2023-03-03T03:34:44;97245.03;;;1.28;100.00
12178;BME280;6152;48.728;9.256;2023-03-03T03:37:10;97239.78;;;1.34;100.00
12178;BME280;6152;48.728;9.256;2023-03-03T03:39:36;97244.69;;;1.43;100.00
12178;BME280;6152;48.728;9.256;2023-03-03T03:42:03;97240.34;;;1.47;100.00
12178;BME280;6152;48.728;9.256;2023-03-03T03:44:29;97238.50;;;1.52;100.00
12178;BME280;6152;48.728;9.256;2023-03-03T03:46:55;97239.28;;;1.56;100.00
12178;BME280;6152;48.728;9.256;2023-03-03T03:49:21;97244.38;;;1.57;100.00
12178;BME280;6152;48.728;9.256;2023-03-03T03:51:47;97237.63;;;1.55;100.00
12178;BME280;6152;48.728;9.256;2023-03-03T03:54:13;97240.91;;;1.60;100.00
12178;BME280;6152;48.728;9.256;2023-03-03T03:56:39;97239.16;;;1.62;100.00
12178;BME280;6152;48.728;9.256;2023-03-03T03:59:06;97247.56;;;1.67;100.00
12178;BME280;6152;48.728;9.256;2023-03-03T04:01:33;97245.84;;;1.69;100.00
12178;BME280;6152;48.728;9.256;2023-03-03T04:03:59;97245.75;;;1.72;100.00
12178;BME280;6152;48.728;9.256;2023-03-03T04:06:25;97240.53;;;1.75;100.00
12178;BME280;6152;48.728;9.256;2023-03-03T04:08:51;97233.66;;;1.77;100.00
12178;BME280;6152;48.728;9.256;2023-03-03T04:11:17;97233.72;;;1.74;100.00
12178;BME280;6152;48.728;9.256;2023-03-03T04:13:43;97239.53;;;1.80;100.00
12178;BME280;6152;48.728;9.256;2023-03-03T04:16:10;97238.00;;;1.73;100.00
12178;BME280;6152;48.728;9.256;2023-03-03T04:18:36;97252.28;;;1.83;100.00
12178;BME280;6152;48.728;9.256;2023-03-03T04:21:02;97255.78;;;1.81;100.00
12178;BME280;6152;48.728;9.256;2023-03-03T04:23:28;97256.66;;;1.80;100.00
12178;BME280;6152;48.728;9.256;2023-03-03T04:25:54;97259.28;;;1.78;100.00
12178;BME280;6152;48.728;9.256;2023-03-03T04:28:20;97260.25;;;1.73;100.00
12178;BME280;6152;48.728;9.256;2023-03-03T04:30:50;97263.88;;;1.64;100.00
12178;BME280;6152;48.728;9.256;2023-03-03T04:33:16;97265.78;;;1.56;100.00
12178;BME280;6152;48.728;9.256;2023-03-03T04:35:42;97262.41;;;1.54;100.00
12178;BME280;6152;48.728;9.256;2023-03-03T04:38:08;97264.91;;;1.56;100.00
12178;BME280;6152;48.728;9.256;2023-03-03T04:40:34;97262.34;;;1.57;100.00
12178;BME280;6152;48.728;9.256;2023-03-03T04:43:00;97258.91;;;1.57;100.00
12178;BME280;6152;48.728;9.256;2023-03-03T04:45:26;97257.13;;;1.60;100.00
12178;BME280;6152;48.728;9.256;2023-03-03T04:47:52;97252.84;;;1.61;100.00
12178;BME280;6152;48.728;9.256;2023-03-03T04:50:18;97265.59;;;1.64;100.00
12178;BME280;6152;48.728;9.256;2023-03-03T04:52:45;97260.47;;;1.64;100.00
12178;BME280;6152;48.728;9.256;2023-03-03T04:55:11;97266.34;;;1.69;100.00
12178;BME280;6152;48.728;9.256;2023-03-03T04:57:38;97267.13;;;1.72;100.00
12178;BME280;6152;48.728;9.256;2023-03-03T05:00:05;97274.75;;;1.74;100.00
12178;BME280;6152;48.728;9.256;2023-03-03T05:02:32;97279.03;;;1.75;100.00
12178;BME280;6152;48.728;9.256;2023-03-03T05:04:58;97275.63;;;1.74;100.00
12178;BME280;6152;48.728;9.256;2023-03-03T05:07:24;97282.38;;;1.77;100.00
12178;BME280;6152;48.728;9.256;2023-03-03T05:09:50;97278.97;;;1.76;100.00
12178;BME280;6152;48.728;9.256;2023-03-03T05:12:16;97281.59;;;1.75;100.00
12178;BME280;6152;48.728;9.256;2023-03-03T05:14:42;97283.31;;;1.73;100.00
12178;BME280;6152;48.728;9.256;2023-03-03T05:17:08;97280.66;;;1.77;100.00
12178;BME280;6152;48.728;9.256;2023-03-03T05:19:35;97284.09;;;1.78;100.00
12178;BME280;6152;48.728;9.256;2023-03-03T05:22:01;97278.09;;;1.79;100.00
12178;BME280;6152;48.728;9.256;2023-03-03T05:24:27;97279.91;;;1.74;100.00
12178;BME280;6152;48.728;9.256;2023-03-03T05:26:53;97286.72;;;1.75;100.00
12178;BME280;6152;48.728;9.256;2023-03-03T05:29:20;97277.16;;;1.81;100.00
12178;BME280;6152;48.728;9.256;2023-03-03T05:31:46;97289.97;;;1.81;100.00
12178;BME280;6152;48.728;9.256;2023-03-03T05:34:12;97283.28;;;1.76;100.00
12178;BME280;6152;48.728;9.256;2023-03-03T05:36:38;97283.06;;;1.85;100.00
12178;BME280;6152;48.728;9.256;2023-03-03T05:39:04;97292.56;;;1.81;100.00
12178;BME280;6152;48.728;9.256;2023-03-03T05:41:30;97290.13;;;1.75;100.00
12178;BME280;6152;48.728;9.256;2023-03-03T05:43:57;97289.31;;;1.73;100.00
12178;BME280;6152;48.728;9.256;2023-03-03T05:46:23;97294.66;;;1.64;100.00
12178;BME280;6152;48.728;9.256;2023-03-03T05:48:49;97299.88;;;1.61;100.00
12178;BME280;6152;48.728;9.256;2023-03-03T05:51:15;97300.63;;;1.65;100.00
12178;BME280;6152;48.728;9.256;2023-03-03T05:53:41;97305.69;;;1.68;100.00
12178;BME280;6152;48.728;9.256;2023-03-03T05:56:07;97307.50;;;1.63;100.00
12178;BME280;6152;48.728;9.256;2023-03-03T05:58:33;97304.91;;;1.64;100.00
12178;BME280;6152;48.728;9.256;2023-03-03T06:00:59;97303.16;;;1.66;100.00
12178;BME280;6152;48.728;9.256;2023-03-03T06:03:25;97300.63;;;1.65;100.00
12178;BME280;6152;48.728;9.256;2023-03-03T06:05:52;97300.63;;;1.65;100.00
12178;BME280;6152;48.728;9.256;2023-03-03T06:08:18;97313.47;;;1.65;100.00
12178;BME280;6152;48.728;9.256;2023-03-03T06:10:44;97304.13;;;1.61;100.00
12178;BME280;6152;48.728;9.256;2023-03-03T06:13:10;97308.34;;;1.63;100.00
12178;BME280;6152;48.728;9.256;2023-03-03T06:15:36;97312.56;;;1.66;100.00
12178;BME280;6152;48.728;9.256;2023-03-03T06:18:02;97314.19;;;1.70;100.00
12178;BME280;6152;48.728;9.256;2023-03-03T06:20:29;97317.50;;;1.75;100.00
12178;BME280;6152;48.728;9.256;2023-03-03T06:22:55;97314.06;;;1.76;100.00
12178;BME280;6152;48.728;9.256;2023-03-03T06:25:21;97321.75;;;1.76;100.00
12178;BME280;6152;48.728;9.256;2023-03-03T06:27:47;97330.41;;;1.70;100.00
12178;BME280;6152;48.728;9.256;2023-03-03T06:30:13;97335.53;;;1.72;100.00
12178;BME280;6152;48.728;9.256;2023-03-03T06:32:40;97334.63;;;1.73;100.00
12178;BME280;6152;48.728;9.256;2023-03-03T06:35:06;97332.13;;;1.70;100.00
12178;BME280;6152;48.728;9.256;2023-03-03T06:37:32;97324.34;;;1.76;100.00
12178;BME280;6152;48.728;9.256;2023-03-03T06:39:58;97333.69;;;1.77;100.00
12178;BME280;6152;48.728;9.256;2023-03-03T06:42:25;97337.88;;;1.81;100.00
12178;BME280;6152;48.728;9.256;2023-03-03T06:44:51;97342.94;;;1.84;100.00
12178;BME280;6152;48.728;9.256;2023-03-03T06:47:17;97337.91;;;1.79;100.00
12178;BME280;6152;48.728;9.256;2023-03-03T06:49:43;97342.06;;;1.85;100.00
12178;BME280;6152;48.728;9.256;2023-03-03T06:52:16;97356.53;;;1.89;100.00
12178;BME280;6152;48.728;9.256;2023-03-03T06:54:44;97345.44;;;1.87;100.00
12178;BME280;6152;48.728;9.256;2023-03-03T06:57:16;97350.56;;;1.87;100.00
12178;BME280;6152;48.728;9.256;2023-03-03T06:59:47;97351.38;;;1.89;100.00
12178;BME280;6152;48.728;9.256;2023-03-03T07:02:16;97359.19;;;1.83;100.00
12178;BME280;6152;48.728;9.256;2023-03-03T07:04:43;97359.88;;;1.91;100.00
12178;BME280;6152;48.728;9.256;2023-03-03T07:07:16;97357.84;;;2.05;100.00
12178;BME280;6152;48.728;9.256;2023-03-03T07:09:45;97366.31;;;2.10;100.00
12178;BME280;6152;48.728;9.256;2023-03-03T07:12:20;97371.63;;;2.01;100.00
12178;BME280;6152;48.728;9.256;2023-03-03T07:14:54;97366.50;;;2.01;100.00
12178;BME280;6152;48.728;9.256;2023-03-03T07:17:24;97372.41;;;2.04;100.00
12178;BME280;6152;48.728;9.256;2023-03-03T07:19:51;97381.63;;;2.13;100.00
12178;BME280;6152;48.728;9.256;2023-03-03T07:22:24;97385.84;;;2.16;100.00
12178;BME280;6152;48.728;9.256;2023-03-03T07:24:59;97384.81;;;2.23;100.00
12178;BME280;6152;48.728;9.256;2023-03-03T07:27:30;97385.69;;;2.22;100.00
12178;BME280;6152;48.728;9.256;2023-03-03T07:30:23;97378.75;;;2.25;100.00
12178;BME280;6152;48.728;9.256;2023-03-03T07:32:52;97375.06;;;2.37;100.00
12178;BME280;6152;48.728;9.256;2023-03-03T07:35:42;97380.66;;;2.52;100.00
12178;BME280;6152;48.728;9.256;2023-03-03T07:38:33;97388.88;;;2.67;100.00
12178;BME280;6152;48.728;9.256;2023-03-03T07:41:09;97386.88;;;2.78;100.00
12178;BME280;6152;48.728;9.256;2023-03-03T07:43:50;97384.81;;;2.92;100.00
12178;BME280;6152;48.728;9.256;2023-03-03T07:46:46;97380.22;;;3.03;100.00
12178;BME280;6152;48.728;9.256;2023-03-03T07:51:47;97380.84;;;3.42;100.00
12178;BME280;6152;48.728;9.256;2023-03-03T07:56:46;97382.59;;;3.71;100.00
12178;BME280;6152;48.728;9.256;2023-03-03T07:59:21;97387.47;;;3.80;100.00
12178;BME280;6152;48.728;9.256;2023-03-03T08:01:55;97392.50;;;3.84;100.00
12178;BME280;6152;48.728;9.256;2023-03-03T08:04:39;97397.50;;;3.89;100.00
12178;BME280;6152;48.728;9.256;2023-03-03T08:07:21;97399.28;;;3.87;100.00
12178;BME280;6152;48.728;9.256;2023-03-03T08:09:58;97399.66;;;4.02;100.00
12178;BME280;6152;48.728;9.256;2023-03-03T08:17:54;97402.81;;;4.38;100.00
12178;BME280;6152;48.728;9.256;2023-03-03T08:20:41;97407.72;;;4.47;100.00
12178;BME280;6152;48.728;9.256;2023-03-03T08:23:09;97393.97;;;4.47;100.00
12178;BME280;6152;48.728;9.256;2023-03-03T08:25:36;97400.44;;;4.58;100.00
12178;BME280;6152;48.728;9.256;2023-03-03T08:28:02;97399.69;;;4.56;100.00
12178;BME280;6152;48.728;9.256;2023-03-03T08:30:28;97395.41;;;4.55;100.00
12178;BME280;6152;48.728;9.256;2023-03-03T08:32:55;97391.75;;;4.63;100.00
12178;BME280;6152;48.728;9.256;2023-03-03T08:35:21;97397.50;;;4.44;100.00
12178;BME280;6152;48.728;9.256;2023-03-03T08:37:47;97387.94;;;4.48;100.00
12178;BME280;6152;48.728;9.256;2023-03-03T08:40:14;97392.53;;;4.65;100.00
12178;BME280;6152;48.728;9.256;2023-03-03T08:42:40;97402.47;;;4.50;100.00
12178;BME280;6152;48.728;9.256;2023-03-03T08:45:06;97400.06;;;4.71;100.00
12178;BME280;6152;48.728;9.256;2023-03-03T08:47:32;97405.16;;;4.98;100.00
12178;BME280;6152;48.728;9.256;2023-03-03T08:49:58;97395.63;;;5.25;100.00
12178;BME280;6152;48.728;9.256;2023-03-03T08:52:24;97400.22;;;5.17;100.00
12178;BME280;6152;48.728;9.256;2023-03-03T08:54:51;97399.44;;;5.38;100.00
12178;BME280;6152;48.728;9.256;2023-03-03T08:57:17;97409.75;;;5.38;100.00
12178;BME280;6152;48.728;9.256;2023-03-03T08:59:44;97409.22;;;5.53;100.00
12178;BME280;6152;48.728;9.256;2023-03-03T09:02:12;97416.63;;;5.63;100.00
12178;BME280;6152;48.728;9.256;2023-03-03T09:04:38;97411.22;;;5.93;98.26
12178;BME280;6152;48.728;9.256;2023-03-03T09:07:04;97417.06;;;5.98;96.42
12178;BME280;6152;48.728;9.256;2023-03-03T09:09:30;97420.56;;;6.19;94.73
12178;BME280;6152;48.728;9.256;2023-03-03T09:12:13;97418.91;;;6.62;92.95
12178;BME280;6152;48.728;9.256;2023-03-03T09:14:39;97419.09;;;6.99;88.18
12178;BME280;6152;48.728;9.256;2023-03-03T09:17:21;97422.31;;;7.04;86.07
12178;BME280;6152;48.728;9.256;2023-03-03T09:19:48;97429.69;;;7.53;81.32
12178;BME280;6152;48.728;9.256;2023-03-03T09:22:21;97432.19;;;7.94;77.08
12178;BME280;6152;48.728;9.256;2023-03-03T09:24:50;97429.88;;;8.25;74.29
12178;BME280;6152;48.728;9.256;2023-03-03T09:27:28;97427.88;;;8.50;69.59
12178;BME280;6152;48.728;9.256;2023-03-03T09:32:47;97435.84;;;8.65;68.20
12178;BME280;6152;48.728;9.256;2023-03-03T09:35:35;97429.47;;;8.53;64.74
12178;BME280;6152;48.728;9.256;2023-03-03T09:43:47;97430.16;;;7.82;70.19
12178;BME280;6152;48.728;9.256;2023-03-03T09:46:46;97436.81;;;8.25;69.62
12178;BME280;6152;48.728;9.256;2023-03-03T09:52:01;97427.47;;;8.94;63.88
12178;BME280;6152;48.728;9.256;2023-03-03T10:06:10;97425.50;;;10.16;57.04
12178;BME280;6152;48.728;9.256;2023-03-03T10:12:04;97425.81;;;9.77;56.45
12178;BME280;6152;48.728;9.256;2023-03-03T10:17:29;97425.66;;;9.80;58.04
12178;BME280;6152;48.728;9.256;2023-03-03T10:21:19;97433.03;;;10.68;56.05
12178;BME280;6152;48.728;9.256;2023-03-03T10:29:14;97432.38;;;11.53;52.21
12178;BME280;6152;48.728;9.256;2023-03-03T10:32:17;97432.00;;;11.59;51.07
12178;BME280;6152;48.728;9.256;2023-03-03T10:54:09;97406.91;;;16.65;38.24
12178;BME280;6152;48.728;9.256;2023-03-03T10:56:56;97412.63;;;16.82;37.42
12178;BME280;6152;48.728;9.256;2023-03-03T10:59:36;97408.19;;;17.14;37.40
12178;BME280;6152;48.728;9.256;2023-03-03T11:07:30;97406.16;;;15.17;39.26
12178;BME280;6152;48.728;9.256;2023-03-03T11:10:07;97405.00;;;14.98;39.49
12178;BME280;6152;48.728;9.256;2023-03-03T11:15:28;97407.56;;;13.26;41.71
12178;BME280;6152;48.728;9.256;2023-03-03T11:31:43;97417.81;;;10.13;49.61
12178;BME280;6152;48.728;9.256;2023-03-03T11:36:49;97425.22;;;9.55;51.80
12178;BME280;6152;48.728;9.256;2023-03-03T11:39:22;97418.94;;;9.26;53.22
12178;BME280;6152;48.728;9.256;2023-03-03T11:42:07;97430.31;;;9.06;54.83
12178;BME280;6152;48.728;9.256;2023-03-03T11:44:45;97423.09;;;8.60;57.64
12178;BME280;6152;48.728;9.256;2023-03-03T12:00:51;97392.81;;;15.55;39.85
12178;BME280;6152;48.728;9.256;2023-03-03T12:03:28;97385.69;;;15.91;38.20
12178;BME280;6152;48.728;9.256;2023-03-03T12:06:06;97383.19;;;16.00;37.71
12178;BME280;6152;48.728;9.256;2023-03-03T12:08:58;97388.97;;;16.71;37.30
12178;BME280;6152;48.728;9.256;2023-03-03T12:11:56;97393.06;;;17.27;34.52
12178;BME280;6152;48.728;9.256;2023-03-03T12:15:00;97374.69;;;18.48;34.45
12178;BME280;6152;48.728;9.256;2023-03-03T12:17:54;97377.56;;;19.52;32.08
12178;BME280;6152;48.728;9.256;2023-03-03T12:25:57;97362.44;;;22.47;26.98
12178;BME280;6152;48.728;9.256;2023-03-03T12:28:41;97366.38;;;22.85;26.76
12178;BME280;6152;48.728;9.256;2023-03-03T12:33:51;97354.97;;;22.58;27.07
12178;BME280;6152;48.728;9.256;2023-03-03T12:42:29;97354.28;;;21.81;27.34
12178;BME280;6152;48.728;9.256;2023-03-03T12:48:05;97348.00;;;21.30;27.71
12178;BME280;6152;48.728;9.256;2023-03-03T12:59:28;97340.97;;;19.67;29.46
12178;BME280;6152;48.728;9.256;2023-03-03T13:05:01;97347.63;;;18.46;30.64
12178;BME280;6152;48.728;9.256;2023-03-03T13:07:37;97347.19;;;17.41;32.20
12178;BME280;6152;48.728;9.256;2023-03-03T13:15:52;97343.75;;;14.40;37.30
12178;BME280;6152;48.728;9.256;2023-03-03T13:18:42;97353.00;;;13.59;38.89
12178;BME280;6152;48.728;9.256;2023-03-03T13:21:35;97355.84;;;13.04;39.97
12178;BME280;6152;48.728;9.256;2023-03-03T13:24:38;97345.00;;;12.17;41.60
12178;BME280;6152;48.728;9.256;2023-03-03T13:27:16;97352.03;;;12.43;42.17
12178;BME280;6152;48.728;9.256;2023-03-03T13:32:25;97343.91;;;12.07;42.91
12178;BME280;6152;48.728;9.256;2023-03-03T13:35:23;97346.28;;;11.41;44.24
12178;BME280;6152;48.728;9.256;2023-03-03T13:37:55;97339.31;;;10.97;45.32
12178;BME280;6152;48.728;9.256;2023-03-03T13:40:45;97339.72;;;10.76;46.31
12178;BME280;6152;48.728;9.256;2023-03-03T13:43:25;97339.16;;;10.71;46.42
12178;BME280;6152;48.728;9.256;2023-03-03T13:46:07;97342.31;;;10.61;46.99
12178;BME280;6152;48.728;9.256;2023-03-03T13:51:41;97329.66;;;10.70;47.57
12178;BME280;6152;48.728;9.256;2023-03-03T14:05:13;97329.41;;;10.29;48.68
12178;BME280;6152;48.728;9.256;2023-03-03T14:26:10;97310.72;;;9.75;51.00
12178;BME280;6152;48.728;9.256;2023-03-03T14:29:10;97318.97;;;9.50;52.25
12178;BME280;6152;48.728;9.256;2023-03-03T14:31:42;97317.44;;;9.46;52.07
12178;BME280;6152;48.728;9.256;2023-03-03T14:34:24;97313.78;;;9.50;52.30
12178;BME280;6152;48.728;9.256;2023-03-03T14:36:58;97326.50;;;9.55;52.36
12178;BME280;6152;48.728;9.256;2023-03-03T14:39:39;97314.19;;;9.58;52.32
12178;BME280;6152;48.728;9.256;2023-03-03T14:42:33;97324.84;;;9.54;51.87
12178;BME280;6152;48.728;9.256;2023-03-03T14:45:03;97321.41;;;9.21;52.94
12178;BME280;6152;48.728;9.256;2023-03-03T14:47:44;97314.28;;;9.24;53.39
12178;BME280;6152;48.728;9.256;2023-03-03T14:50:36;97313.69;;;9.19;53.95
12178;BME280;6152;48.728;9.256;2023-03-03T14:53:13;97316.06;;;9.24;53.48
12178;BME280;6152;48.728;9.256;2023-03-03T14:55:42;97325.09;;;9.17;53.91
12178;BME280;6152;48.728;9.256;2023-03-03T15:01:15;97316.88;;;9.24;54.12
12178;BME280;6152;48.728;9.256;2023-03-03T15:06:35;97308.50;;;9.19;54.32
12178;BME280;6152;48.728;9.256;2023-03-03T15:09:37;97316.16;;;9.05;54.16
12178;BME280;6152;48.728;9.256;2023-03-03T15:12:36;97324.28;;;8.82;55.79
12178;BME280;6152;48.728;9.256;2023-03-03T15:15:12;97320.00;;;8.81;55.75
12178;BME280;6152;48.728;9.256;2023-03-03T15:18:00;97314.81;;;8.81;56.41
12178;BME280;6152;48.728;9.256;2023-03-03T15:20:41;97309.00;;;8.76;57.23
12178;BME280;6152;48.728;9.256;2023-03-03T15:26:04;97310.38;;;8.66;56.40
12178;BME280;6152;48.728;9.256;2023-03-03T15:42:52;97307.56;;;8.53;57.96
12178;BME280;6152;48.728;9.256;2023-03-03T15:48:21;97313.75;;;8.50;58.73
12178;BME280;6152;48.728;9.256;2023-03-03T16:04:36;97314.34;;;8.38;60.38
12178;BME280;6152;48.728;9.256;2023-03-03T16:18:22;97324.16;;;7.96;64.44
12178;BME280;6152;48.728;9.256;2023-03-03T16:28:42;97338.09;;;7.75;66.27
12178;BME280;6152;48.728;9.256;2023-03-03T16:31:35;97335.56;;;7.73;67.27
12178;BME280;6152;48.728;9.256;2023-03-03T16:34:21;97338.38;;;7.69;66.80
12178;BME280;6152;48.728;9.256;2023-03-03T16:37:03;97338.47;;;7.66;67.99
12178;BME280;6152;48.728;9.256;2023-03-03T16:39:39;97346.34;;;7.64;67.83
12178;BME280;6152;48.728;9.256;2023-03-03T16:42:30;97345.00;;;7.55;68.57
12178;BME280;6152;48.728;9.256;2023-03-03T16:47:58;97346.72;;;7.36;70.61
12178;BME280;6152;48.728;9.256;2023-03-03T17:01:38;97367.09;;;7.05;73.78
12178;BME280;6152;48.728;9.256;2023-03-03T17:06:56;97365.91;;;6.92;75.46
12178;BME280;6152;48.728;9.256;2023-03-03T17:17:42;97376.63;;;6.63;79.31
12178;BME280;6152;48.728;9.256;2023-03-03T17:20:46;97377.84;;;6.54;80.29
12178;BME280;6152;48.728;9.256;2023-03-03T17:26:02;97385.22;;;6.41;81.88
12178;BME280;6152;48.728;9.256;2023-03-03T17:28:55;97392.22;;;6.39;82.54
12178;BME280;6152;48.728;9.256;2023-03-03T17:31:43;97407.72;;;6.39;83.31
12178;BME280;6152;48.728;9.256;2023-03-03T17:39:59;97405.31;;;6.13;86.06
12178;BME280;6152;48.728;9.256;2023-03-03T17:42:32;97411.53;;;6.07;87.82
12178;BME280;6152;48.728;9.256;2023-03-03T17:47:52;97412.13;;;5.92;89.02
12178;BME280;6152;48.728;9.256;2023-03-03T17:56:30;97427.78;;;5.88;91.31
12178;BME280;6152;48.728;9.256;2023-03-03T17:59:24;97434.94;;;5.80;92.42
12178;BME280;6152;48.728;9.256;2023-03-03T18:24:26;97451.59;;;5.48;98.30
12178;BME280;6152;48.728;9.256;2023-03-03T18:26:53;97455.91;;;5.47;99.18
12178;BME280;6152;48.728;9.256;2023-03-03T18:29:25;97464.66;;;5.43;99.50
12178;BME280;6152;48.728;9.256;2023-03-03T18:34:35;97461.38;;;5.38;100.00
12178;BME280;6152;48.728;9.256;2023-03-03T18:37:36;97462.34;;;5.36;100.00
12178;BME280;6152;48.728;9.256;2023-03-03T18:48:09;97469.41;;;5.31;100.00
12178;BME280;6152;48.728;9.256;2023-03-03T18:50:39;97466.09;;;5.27;100.00
12178;BME280;6152;48.728;9.256;2023-03-03T18:53:17;97470.66;;;5.19;100.00
12178;BME280;6152;48.728;9.256;2023-03-03T18:55:54;97484.50;;;5.17;100.00
12178;BME280;6152;48.728;9.256;2023-03-03T18:58:30;97477.00;;;5.09;100.00
12178;BME280;6152;48.728;9.256;2023-03-03T19:01:39;97486.53;;;5.07;100.00